createdAt,value
2022-10-05T01:15:54.827Z,98530.63
2022-10-05T03:40:25.090Z,98608.16
2022-10-05T03:46:20.853Z,98609.81
2022-10-05T05:40:13.181Z,98638.69
2022-10-05T06:56:49.723Z,98699.44
2022-10-05T11:27:16.036Z,98917.66
2022-10-05T11:30:04.522Z,98917.78
2022-10-05T11:36:09.460Z,98925.69
2022-10-05T11:38:55.432Z,98914.19
2022-10-05T11:41:50.984Z,98922.28
2022-10-05T11:44:51.941Z,98932.38
2022-10-05T11:47:28.830Z,98912.66
2022-10-05T11:50:15.142Z,98940.72
2022-10-05T11:52:54.302Z,98910.59
2022-10-05T11:55:28.085Z,98942.03
2022-10-05T11:57:57.049Z,98945.00
2022-10-05T12:00:40.826Z,98949.97
2022-10-05T12:03:11.617Z,98949.34
2022-10-05T12:05:58.827Z,98926.19
2022-10-05T12:11:43.054Z,98964.28
2022-10-05T12:14:34.233Z,98977.25
2022-10-05T12:17:33.367Z,98973.56
2022-10-05T12:20:11.844Z,98970.50
2022-10-05T12:22:43.251Z,98955.13
2022-10-05T12:25:31.072Z,98980.47
2022-10-05T12:28:06.004Z,98972.19
2022-10-05T12:31:16.571Z,98980.00
2022-10-05T12:33:55.450Z,98962.50
2022-10-05T12:37:04.205Z,98981.78
2022-10-05T12:39:44.223Z,98998.56
2022-10-05T12:42:51.460Z,98995.22
2022-10-05T12:45:27.994Z,98994.78
2022-10-05T12:48:19.218Z,98999.69
2022-10-05T12:50:53.726Z,98979.78
2022-10-05T12:53:49.440Z,98984.81
2022-10-05T12:56:29.575Z,98998.00
2022-10-05T12:59:17.795Z,98991.75
2022-10-05T13:04:48.949Z,99015.91
2022-10-05T13:07:57.328Z,99011.19
2022-10-05T13:10:41.708Z,99008.38
2022-10-05T13:13:39.775Z,98992.97
2022-10-05T13:16:20.422Z,99009.09
2022-10-05T13:18:58.650Z,98996.38
2022-10-05T13:21:52.786Z,98997.81
2022-10-05T13:27:35.914Z,99003.81
2022-10-05T13:30:16.841Z,98983.63
2022-10-05T13:32:50.431Z,99014.31
2022-10-05T13:35:46.997Z,98999.34
2022-10-05T13:38:47.771Z,99012.91
2022-10-05T13:41:45.882Z,99020.19
2022-10-05T13:44:22.746Z,99016.84
2022-10-05T13:46:59.416Z,99029.22
2022-10-05T16:54:48.560Z,99144.97
2022-10-05T16:57:36.544Z,99153.78
2022-10-05T17:00:15.642Z,99163.31
2022-10-05T17:21:17.466Z,99179.84
2022-10-05T17:24:04.590Z,99172.84
2022-10-05T17:35:27.263Z,99195.34
2022-10-05T17:50:20.746Z,99155.72
2022-10-05T17:53:39.514Z,99181.84
2022-10-05T22:50:16.815Z,99276.44
